createdAt,value
2023-03-02T00:01:48.566Z,45.45
2023-03-02T00:04:21.662Z,45.95
2023-03-02T00:06:50.655Z,46.08
2023-03-02T00:09:17.619Z,45.64
2023-03-02T00:11:45.660Z,46.03
2023-03-02T00:14:12.239Z,45.64
2023-03-02T00:16:40.295Z,45.45
2023-03-02T00:19:06.833Z,45.69
2023-03-02T00:21:33.357Z,45.38
2023-03-02T00:23:59.899Z,45.50
2023-03-02T00:26:26.508Z,45.54
2023-03-02T00:28:52.968Z,45.74
2023-03-02T00:31:19.592Z,45.61
2023-03-02T00:33:46.265Z,45.60
2023-03-02T00:36:17.757Z,45.63
2023-03-02T00:38:44.920Z,45.80
2023-03-02T00:41:13.603Z,46.21
2023-03-02T00:43:40.723Z,46.30
2023-03-02T00:46:18.829Z,45.81
2023-03-02T00:48:46.393Z,46.40
2023-03-02T00:51:13.487Z,46.47
2023-03-02T00:53:41.467Z,46.91
2023-03-02T00:56:09.210Z,46.96
2023-03-02T00:58:36.095Z,46.72
2023-03-02T01:01:11.347Z,43.83
2023-03-02T01:03:38.198Z,46.28
2023-03-02T01:06:05.416Z,43.68
2023-03-02T01:08:32.195Z,46.27
2023-03-02T01:11:01.400Z,46.32
2023-03-02T01:13:28.561Z,46.64
2023-03-02T01:16:04.537Z,46.46
2023-03-02T01:18:32.225Z,46.46
2023-03-02T01:21:08.623Z,46.24
2023-03-02T01:23:35.380Z,46.33
2023-03-02T01:26:02.639Z,46.21
2023-03-02T01:28:29.423Z,46.73
2023-03-02T01:30:55.957Z,44.20
2023-03-02T01:33:22.495Z,46.36
2023-03-02T01:35:49.073Z,46.66
2023-03-02T01:38:15.926Z,46.98
2023-03-02T01:40:42.372Z,44.30
2023-03-02T01:43:17.416Z,46.34
2023-03-02T01:45:55.869Z,46.60
2023-03-02T01:48:34.216Z,46.39
2023-03-02T01:51:02.843Z,47.09
2023-03-02T01:53:32.560Z,47.15
2023-03-02T01:56:00.746Z,47.21
2023-03-02T01:58:32.126Z,47.20
2023-03-02T02:00:58.860Z,47.54
2023-03-02T02:03:28.945Z,47.07
2023-03-02T02:06:13.411Z,46.47
2023-03-02T02:08:40.007Z,47.08
2023-03-02T02:11:06.755Z,47.32
2023-03-02T02:13:33.439Z,46.94
2023-03-02T02:16:00.438Z,46.90
2023-03-02T02:18:27.464Z,47.30
2023-03-02T02:20:55.492Z,47.41
2023-03-02T02:23:30.451Z,47.01
2023-03-02T02:26:02.217Z,47.26
2023-03-02T02:28:41.024Z,46.92
2023-03-02T02:31:22.912Z,46.46
2023-03-02T02:33:56.509Z,47.12
2023-03-02T02:36:33.635Z,47.27
2023-03-02T02:39:02.439Z,44.70
2023-03-02T02:41:34.374Z,47.38
2023-03-02T02:44:00.882Z,47.53
2023-03-02T02:46:27.907Z,47.64
2023-03-02T02:48:54.483Z,47.49
2023-03-02T02:51:28.784Z,47.25
2023-03-02T02:54:01.714Z,47.45
2023-03-02T02:56:34.957Z,47.10
2023-03-02T02:59:07.077Z,47.41
2023-03-02T03:01:34.951Z,47.43
2023-03-02T03:04:04.124Z,47.41
2023-03-02T03:06:42.311Z,47.29
2023-03-02T03:09:10.903Z,47.35
2023-03-02T03:11:46.684Z,47.46
2023-03-02T03:14:19.842Z,47.30
2023-03-02T03:16:48.237Z,47.67
2023-03-02T03:19:20.714Z,47.70
2023-03-02T03:21:49.819Z,47.82
2023-03-02T03:24:16.626Z,47.57
2023-03-02T03:26:43.397Z,44.97
2023-03-02T03:29:10.658Z,47.31
2023-03-02T03:31:37.614Z,47.54
2023-03-02T03:34:04.949Z,47.82
2023-03-02T03:36:33.123Z,47.88
2023-03-02T03:39:00.652Z,47.58
2023-03-02T03:41:27.642Z,47.49
2023-03-02T03:43:54.653Z,47.55
2023-03-02T03:46:21.656Z,47.60
2023-03-02T03:48:48.323Z,47.71
2023-03-02T03:51:15.722Z,48.00
2023-03-02T03:53:42.342Z,47.83
2023-03-02T03:56:08.908Z,47.33
2023-03-02T03:58:35.722Z,47.49
2023-03-02T04:01:02.460Z,45.59
2023-03-02T04:03:29.181Z,47.19
2023-03-02T04:05:55.789Z,47.63
2023-03-02T04:08:22.552Z,47.46
2023-03-02T04:10:49.083Z,47.48
2023-03-02T04:13:15.831Z,47.64
2023-03-02T04:15:42.466Z,47.52
2023-03-02T04:18:09.019Z,47.76
2023-03-02T04:20:35.718Z,47.86
2023-03-02T04:23:02.388Z,47.95
2023-03-02T04:25:30.177Z,48.11
2023-03-02T04:27:57.430Z,48.18
2023-03-02T04:30:26.184Z,48.26
2023-03-02T04:32:53.309Z,48.01
2023-03-02T04:35:20.054Z,48.32
2023-03-02T04:37:47.092Z,45.98
2023-03-02T04:40:14.745Z,47.67
2023-03-02T04:42:41.813Z,48.13
2023-03-02T04:45:09.080Z,47.97
2023-03-02T04:47:35.666Z,47.96
2023-03-02T04:50:02.448Z,47.87
2023-03-02T04:52:28.993Z,47.69
2023-03-02T04:54:55.560Z,47.90
2023-03-02T04:57:22.023Z,47.95
2023-03-02T04:59:48.561Z,48.01
2023-03-02T05:02:15.085Z,48.22
2023-03-02T05:04:42.470Z,48.39
2023-03-02T05:07:09.220Z,48.61
2023-03-02T05:09:35.811Z,48.37
2023-03-02T05:12:02.346Z,51.88
2023-03-02T05:14:29.814Z,56.18
2023-03-02T05:16:56.975Z,60.05
2023-03-02T05:19:23.590Z,62.65
2023-03-02T05:21:50.472Z,64.17
2023-03-02T05:24:16.940Z,59.67
2023-03-02T05:26:43.448Z,64.75
2023-03-02T05:29:10.058Z,65.50
2023-03-02T05:31:38.611Z,65.28
2023-03-02T05:34:07.309Z,62.62
2023-03-02T05:36:34.264Z,62.46
2023-03-02T05:39:01.129Z,63.52
2023-03-02T05:41:27.927Z,63.81
2023-03-02T05:43:54.603Z,58.65
2023-03-02T05:46:22.155Z,61.28
2023-03-02T05:48:50.887Z,58.70
2023-03-02T05:51:17.397Z,51.12
2023-03-02T05:53:44.025Z,48.41
2023-03-02T05:56:10.661Z,44.86
2023-03-02T05:58:37.194Z,44.79
2023-03-02T06:01:09.072Z,43.84
2023-03-02T06:03:35.639Z,43.13
2023-03-02T06:06:02.161Z,42.27
2023-03-02T06:08:28.676Z,42.53
2023-03-02T06:10:56.677Z,42.68
2023-03-02T06:13:23.211Z,42.97
2023-03-02T06:15:49.761Z,43.10
2023-03-02T06:18:16.471Z,43.22
2023-03-02T06:20:43.527Z,43.48
2023-03-02T06:23:11.416Z,43.78
2023-03-02T06:25:40.255Z,44.13
2023-03-02T06:28:06.859Z,44.42
2023-03-02T06:30:33.389Z,45.03
2023-03-02T06:33:00.313Z,45.10
2023-03-02T06:35:27.144Z,45.78
2023-03-02T06:37:53.763Z,44.36
2023-03-02T06:40:21.754Z,45.83
2023-03-02T06:42:48.417Z,46.24
2023-03-02T06:45:15.085Z,46.88
2023-03-02T06:47:41.676Z,47.48
2023-03-02T06:50:09.516Z,48.43
2023-03-02T06:52:38.494Z,48.91
2023-03-02T06:55:05.538Z,49.27
2023-03-02T06:57:34.340Z,49.68
2023-03-02T07:00:10.015Z,49.44
2023-03-02T07:02:37.700Z,49.21
2023-03-02T07:05:05.522Z,49.43
2023-03-02T07:07:32.219Z,49.61
2023-03-02T07:09:58.815Z,50.33
2023-03-02T07:12:25.505Z,50.92
2023-03-02T07:15:02.289Z,51.31
2023-03-02T07:17:28.863Z,51.17
2023-03-02T07:19:55.428Z,50.89
2023-03-02T07:22:22.680Z,51.03
2023-03-02T07:24:49.355Z,50.85
2023-03-02T07:27:20.590Z,51.00
2023-03-02T07:29:47.153Z,50.95
2023-03-02T07:32:16.582Z,51.13
2023-03-02T07:34:43.171Z,51.37
2023-03-02T07:37:09.771Z,51.33
2023-03-02T07:39:38.643Z,51.31
2023-03-02T07:42:07.086Z,51.46
2023-03-02T07:44:36.155Z,51.76
2023-03-02T07:47:02.708Z,52.02
2023-03-02T07:49:29.286Z,51.95
2023-03-02T07:51:58.183Z,52.34
2023-03-02T07:54:27.538Z,52.71
2023-03-02T07:56:54.116Z,53.13
2023-03-02T07:59:22.979Z,52.96
2023-03-02T08:01:49.832Z,53.37
2023-03-02T08:04:18.914Z,53.59
2023-03-02T08:06:48.403Z,53.75
2023-03-02T08:09:16.855Z,53.95
2023-03-02T08:11:43.724Z,53.97
2023-03-02T08:14:10.807Z,53.65
2023-03-02T08:16:39.873Z,53.86
2023-03-02T08:19:07.765Z,54.27
2023-03-02T08:21:34.908Z,54.41
2023-03-02T08:24:01.760Z,54.47
2023-03-02T08:26:28.414Z,54.51
2023-03-02T08:28:57.378Z,55.03
2023-03-02T08:31:26.730Z,54.84
2023-03-02T08:33:53.650Z,54.87
2023-03-02T08:36:20.383Z,51.41
2023-03-02T08:38:48.094Z,54.51
2023-03-02T08:41:20.175Z,54.71
2023-03-02T08:43:47.829Z,54.66
2023-03-02T08:46:19.121Z,54.85
2023-03-02T08:48:50.735Z,55.24
2023-03-02T08:51:25.223Z,54.51
2023-03-02T08:53:55.484Z,55.33
2023-03-02T08:56:32.253Z,54.46
2023-03-02T08:59:02.257Z,55.29
2023-03-02T09:01:32.450Z,54.95
2023-03-02T09:04:00.997Z,54.84
2023-03-02T09:06:29.745Z,55.20
2023-03-02T09:08:56.621Z,55.32
2023-03-02T09:11:23.129Z,51.58
2023-03-02T09:13:53.308Z,54.74
2023-03-02T09:16:20.431Z,54.90
2023-03-02T09:18:48.130Z,55.11
2023-03-02T09:21:14.829Z,55.47
2023-03-02T09:23:41.590Z,55.19
2023-03-02T09:26:10.260Z,55.49
2023-03-02T09:28:37.695Z,55.53
2023-03-02T09:31:06.202Z,55.19
2023-03-02T09:33:35.874Z,55.58
2023-03-02T09:36:09.452Z,55.43
2023-03-02T09:38:36.339Z,55.54
2023-03-02T09:41:12.212Z,52.29
2023-03-02T09:43:49.461Z,54.64
2023-03-02T09:46:49.662Z,53.93
2023-03-02T09:49:26.085Z,54.28
2023-03-02T09:52:04.746Z,54.06
2023-03-02T09:54:33.451Z,54.73
2023-03-02T09:57:00.172Z,55.08
2023-03-02T09:59:40.253Z,54.65
2023-03-02T10:02:16.130Z,54.84
2023-03-02T10:04:51.827Z,54.79
2023-03-02T10:07:32.790Z,54.32
2023-03-02T10:10:19.341Z,54.06
2023-03-02T10:12:55.256Z,54.71
2023-03-02T10:15:26.171Z,54.99
2023-03-02T10:18:11.345Z,53.94
2023-03-02T10:21:21.657Z,53.55
2023-03-02T10:24:16.616Z,54.26
2023-03-02T10:26:51.799Z,54.38
2023-03-02T10:29:27.239Z,54.92
2023-03-02T10:32:02.628Z,54.77
2023-03-02T10:34:30.592Z,55.36
2023-03-02T10:36:58.392Z,55.06
2023-03-02T10:39:25.164Z,54.96
2023-03-02T10:41:55.043Z,51.82
2023-03-02T10:44:27.611Z,54.50
2023-03-02T10:46:54.393Z,54.65
2023-03-02T10:49:24.244Z,51.90
2023-03-02T10:52:13.655Z,53.22
2023-03-02T10:54:40.780Z,54.42
2023-03-02T10:57:30.137Z,53.32
2023-03-02T11:00:02.626Z,53.34
2023-03-02T11:02:37.749Z,53.81
2023-03-02T11:05:17.523Z,53.03
2023-03-02T11:07:59.083Z,53.38
2023-03-02T11:10:32.018Z,53.27
2023-03-02T11:13:00.274Z,53.64
2023-03-02T11:15:34.698Z,53.15
2023-03-02T11:18:08.587Z,52.72
2023-03-02T11:20:51.373Z,52.74
2023-03-02T11:23:31.732Z,52.29
2023-03-02T11:26:04.312Z,52.53
2023-03-02T11:28:42.073Z,52.97
2023-03-02T11:31:17.417Z,51.80
2023-03-02T11:34:11.630Z,51.27
2023-03-02T11:36:56.370Z,50.09
2023-03-02T11:39:28.702Z,50.15
2023-03-02T11:41:55.520Z,50.43
2023-03-02T11:44:22.135Z,49.45
2023-03-02T11:46:53.916Z,49.97
2023-03-02T11:49:43.398Z,49.21
2023-03-02T11:52:20.875Z,48.35
2023-03-02T11:55:26.383Z,48.07
2023-03-02T12:03:17.464Z,46.77
2023-03-02T12:06:00.750Z,46.68
2023-03-02T12:08:27.229Z,46.43
2023-03-02T12:11:18.851Z,46.99
2023-03-02T12:13:58.707Z,46.49
2023-03-02T12:16:42.346Z,45.79
2023-03-02T12:19:17.713Z,45.73
2023-03-02T12:21:57.566Z,45.56
2023-03-02T12:24:44.915Z,45.79
2023-03-02T12:27:20.854Z,45.89
2023-03-02T12:30:25.114Z,46.18
2023-03-02T12:33:20.285Z,45.98
2023-03-02T12:35:50.125Z,45.96
2023-03-02T12:38:29.197Z,45.82
2023-03-02T12:41:30.980Z,45.69
2023-03-02T12:44:18.672Z,45.79
2023-03-02T12:46:47.426Z,44.71
2023-03-02T12:49:35.627Z,45.14
2023-03-02T12:52:18.187Z,44.42
2023-03-02T12:54:44.777Z,44.08
2023-03-02T12:57:17.730Z,43.90
2023-03-02T12:59:55.890Z,43.67
2023-03-02T13:02:44.185Z,43.11
2023-03-02T13:05:18.737Z,43.52
2023-03-02T13:07:58.698Z,43.38
2023-03-02T13:10:33.606Z,42.94
2023-03-02T13:13:00.643Z,42.59
2023-03-02T13:15:27.448Z,42.48
2023-03-02T13:17:55.877Z,43.30
2023-03-02T13:20:26.354Z,42.53
2023-03-02T13:22:53.312Z,43.24
2023-03-02T13:25:26.300Z,43.04
2023-03-02T13:27:55.579Z,42.86
2023-03-02T13:30:29.549Z,43.24
2023-03-02T13:33:06.387Z,43.40
2023-03-02T13:35:37.294Z,43.50
2023-03-02T13:38:14.240Z,43.70
2023-03-02T13:40:44.778Z,43.97
2023-03-02T13:43:40.817Z,43.75
2023-03-02T13:46:15.873Z,44.51
2023-03-02T13:49:09.166Z,44.12
2023-03-02T13:51:42.760Z,44.53
2023-03-02T13:54:27.940Z,44.49
2023-03-02T13:56:56.941Z,45.14
2023-03-02T13:59:23.813Z,45.57
2023-03-02T14:01:51.103Z,45.75
2023-03-02T14:04:21.738Z,45.94
2023-03-02T14:06:49.125Z,45.77
2023-03-02T14:09:15.954Z,45.92
2023-03-02T14:11:44.385Z,44.54
2023-03-02T14:14:20.961Z,45.77
2023-03-02T14:16:47.569Z,46.56
2023-03-02T14:19:16.350Z,46.46
2023-03-02T14:21:43.485Z,47.13
2023-03-02T14:24:10.281Z,47.02
2023-03-02T14:26:38.132Z,45.20
2023-03-02T14:29:26.809Z,46.35
2023-03-02T14:31:55.559Z,47.28
2023-03-02T14:34:22.165Z,47.84
2023-03-02T14:36:52.387Z,47.77
2023-03-02T14:39:27.135Z,48.12
2023-03-02T14:41:54.837Z,48.34
2023-03-02T14:44:22.339Z,48.71
2023-03-02T14:46:49.613Z,48.75
2023-03-02T14:49:16.164Z,49.02
2023-03-02T14:51:44.908Z,48.73
2023-03-02T14:54:18.096Z,48.79
2023-03-02T14:56:45.101Z,48.90
2023-03-02T14:59:14.782Z,46.36
2023-03-02T15:01:44.579Z,49.09
2023-03-02T15:04:11.423Z,49.37
2023-03-02T15:06:39.077Z,46.67
2023-03-02T15:09:06.569Z,49.23
2023-03-02T15:11:33.377Z,49.39
2023-03-02T15:14:00.123Z,49.61
2023-03-02T15:16:26.741Z,49.68
2023-03-02T15:18:53.498Z,49.92
2023-03-02T15:21:22.397Z,49.92
2023-03-02T15:23:49.722Z,50.09
2023-03-02T15:26:17.335Z,50.15
2023-03-02T15:28:45.710Z,50.48
2023-03-02T15:31:16.432Z,50.38
2023-03-02T15:33:45.606Z,50.58
2023-03-02T15:36:13.810Z,50.67
2023-03-02T15:38:40.572Z,50.84
2023-03-02T15:41:08.917Z,50.92
2023-03-02T15:43:35.493Z,51.02
2023-03-02T15:46:02.413Z,51.08
2023-03-02T15:48:30.420Z,51.23
2023-03-02T15:50:58.774Z,51.24
2023-03-02T15:53:26.746Z,51.62
2023-03-02T15:55:53.629Z,51.51
2023-03-02T15:58:21.865Z,48.47
2023-03-02T16:00:49.828Z,51.09
2023-03-02T16:03:19.282Z,51.48
2023-03-02T16:05:46.101Z,51.43
2023-03-02T16:08:12.684Z,50.98
2023-03-02T16:10:42.849Z,51.39
2023-03-02T16:13:13.210Z,51.13
2023-03-02T16:15:40.907Z,51.25
2023-03-02T16:18:11.135Z,51.28
2023-03-02T16:20:39.288Z,51.37
2023-03-02T16:23:07.779Z,51.83
2023-03-02T16:25:40.288Z,51.37
2023-03-02T16:28:07.693Z,51.79
2023-03-02T16:30:35.354Z,51.97
2023-03-02T16:33:04.085Z,52.08
2023-03-02T16:35:32.030Z,52.27
2023-03-02T16:37:59.404Z,52.30
2023-03-02T16:40:25.990Z,52.21
2023-03-02T16:42:52.600Z,52.56
2023-03-02T16:45:20.628Z,52.27
2023-03-02T16:47:48.179Z,52.43
2023-03-02T16:50:16.640Z,52.62
2023-03-02T16:52:43.591Z,52.52
2023-03-02T16:55:16.554Z,52.56
2023-03-02T16:57:43.429Z,52.70
2023-03-02T17:00:12.371Z,50.08
2023-03-02T17:02:38.969Z,52.49
2023-03-02T17:05:06.086Z,52.38
2023-03-02T17:07:32.662Z,52.58
2023-03-02T17:09:59.326Z,52.77
2023-03-02T17:12:25.900Z,52.87
2023-03-02T17:14:52.616Z,52.73
2023-03-02T17:17:19.300Z,52.63
2023-03-02T17:19:45.856Z,52.99
2023-03-02T17:22:12.971Z,52.86
2023-03-02T17:24:39.678Z,52.79
2023-03-02T17:27:15.916Z,52.94
2023-03-02T22:14:47.347Z,52.83
2023-03-02T22:17:22.125Z,53.33
2023-03-02T22:19:52.596Z,54.11
2023-03-02T22:22:26.393Z,54.08
2023-03-02T22:24:54.732Z,54.43
2023-03-02T22:27:25.513Z,54.60
2023-03-02T22:29:55.260Z,54.57
2023-03-02T22:32:36.521Z,54.80
2023-03-02T22:35:22.025Z,54.24
2023-03-02T22:37:49.434Z,54.60
2023-03-02T22:40:36.730Z,53.92
2023-03-02T22:43:14.616Z,54.38
2023-03-02T22:45:41.933Z,54.56
2023-03-02T22:48:28.768Z,53.72
2023-03-02T22:50:55.368Z,54.81
2023-03-02T22:53:29.559Z,54.69
2023-03-02T22:56:04.850Z,54.52
2023-03-02T22:58:36.329Z,54.81
2023-03-02T23:01:13.860Z,54.84
2023-03-02T23:03:44.772Z,54.81
2023-03-02T23:06:38.465Z,53.86
2023-03-02T23:09:06.330Z,55.09
2023-03-02T23:11:41.300Z,54.54
2023-03-02T23:14:19.079Z,54.53
2023-03-02T23:16:48.687Z,55.28
2023-03-02T23:19:15.210Z,54.99
2023-03-02T23:21:46.757Z,54.94
2023-03-02T23:24:13.454Z,54.93
2023-03-02T23:26:40.325Z,54.65
2023-03-02T23:29:07.041Z,52.35
2023-03-02T23:31:33.762Z,54.52
2023-03-02T23:34:00.232Z,55.01
2023-03-02T23:36:27.802Z,54.80
2023-03-02T23:38:54.302Z,54.91
2023-03-02T23:41:23.141Z,55.06
2023-03-02T23:43:49.870Z,55.10
2023-03-02T23:46:18.603Z,54.92
2023-03-02T23:48:45.169Z,55.30
2023-03-02T23:51:14.160Z,55.17
2023-03-02T23:53:40.719Z,55.08
2023-03-02T23:56:07.477Z,55.16
2023-03-02T23:58:34.166Z,55.02
